Time;durP1;ratioP1;P1;durP2;ratioP2;P2;SDS_P1;SDS_P2;PMS_P1;PMS_P2;Temp;Humidity;BMP_temperature;BMP_pressure;BME280_temperature;BME280_humidity;BME280_pressure;Samples;Min_cycle;Max_cycle;Signal;HPM_P1;HPM_P2
2023/08/11 00:02:11;;;;;;;5.70;3.30;;;;;;;22.14;50.34;100720.12;105411;1261;61353;-67
2023/08/11 00:04:39;;;;;;;6.50;3.40;;;;;;;22.14;49.66;100719.18;105432;1257;62442;-65
2023/08/11 00:07:06;;;;;;;6.70;2.80;;;;;;;22.13;49.44;100716.48;105567;1257;60625;-63
2023/08/11 00:09:34;;;;;;;8.00;3.50;;;;;;;22.11;49.46;100714.44;105309;1252;60440;-67
2023/08/11 00:12:02;;;;;;;7.60;2.90;;;;;;;22.08;49.38;100713.63;105385;1260;64892;-64
2023/08/11 00:14:30;;;;;;;7.10;3.10;;;;;;;21.99;49.41;100711.52;106243;1257;60434;-64
2023/08/11 00:16:58;;;;;;;7.70;3.50;;;;;;;21.95;49.84;100708.80;105626;1257;63743;-67
2023/08/11 00:19:26;;;;;;;8.60;2.80;;;;;;;21.96;49.76;100704.11;105364;1259;62755;-63
2023/08/11 00:21:54;;;;;;;9.70;3.50;;;;;;;21.98;49.76;100704.75;105485;1259;60383;-63
2023/08/11 00:24:21;;;;;;;7.00;3.40;;;;;;;21.98;49.80;100707.11;105477;1257;63672;-64
2023/08/11 00:26:52;;;;;;;6.60;3.20;;;;;;;21.96;49.92;100711.59;105696;1260;62362;-63
2023/08/11 00:29:20;;;;;;;6.60;3.00;;;;;;;21.96;49.61;100709.52;105345;1259;63681;-64
2023/08/11 00:31:48;;;;;;;7.00;3.50;;;;;;;21.95;49.33;100707.84;105125;1259;60631;-60
2023/08/11 00:34:16;;;;;;;6.20;3.30;;;;;;;21.94;49.52;100704.30;105337;1252;60555;-59
2023/08/11 00:36:43;;;;;;;5.90;3.50;;;;;;;21.94;49.71;100699.52;105523;1257;63697;-59
2023/08/11 00:39:12;;;;;;;7.00;3.90;;;;;;;21.94;49.98;100700.39;105358;1257;60424;-58
2023/08/11 00:41:40;;;;;;;5.90;2.90;;;;;;;21.94;50.20;100698.24;105273;1253;63854;-58
2023/08/11 00:44:08;;;;;;;6.10;3.20;;;;;;;21.94;50.31;100694.89;105389;1259;60536;-58
2023/08/11 00:46:36;;;;;;;6.00;2.70;;;;;;;21.93;50.37;100689.77;105403;1258;60449;-58
2023/08/11 00:49:03;;;;;;;8.00;3.50;;;;;;;21.92;50.02;100682.38;105388;1251;63811;-59
2023/08/11 00:51:31;;;;;;;7.30;3.50;;;;;;;21.90;49.59;100687.98;105825;1257;61937;-59
2023/08/11 00:53:58;;;;;;;7.60;3.30;;;;;;;21.89;49.52;100692.79;105349;1256;63760;-58
2023/08/11 00:56:26;;;;;;;5.80;2.80;;;;;;;21.87;49.72;100692.64;105128;1257;60456;-59
2023/08/11 00:58:54;;;;;;;8.60;3.60;;;;;;;21.86;49.94;100691.39;104966;1251;299843;-58
2023/08/11 01:03:53;;;;;;;6.90;3.70;;;;;;;21.60;50.99;100687.55;102420;1295;600736;-60
2023/08/11 01:06:40;;;;;;;6.60;3.20;;;;;;;21.81;50.67;100685.90;105480;1270;59309;-63
2023/08/11 01:09:35;;;;;;;6.40;3.80;;;;;;;21.82;50.55;100682.21;104396;1272;59430;-59
2023/08/11 01:12:36;;;;;;;7.00;3.70;;;;;;;21.80;50.77;100679.95;104589;1267;62069;-61
2023/08/11 01:15:05;;;;;;;8.10;3.40;;;;;;;21.78;50.86;100673.14;104540;1267;61392;-68
2023/08/11 01:17:32;;;;;;;6.80;3.70;;;;;;;21.75;50.98;100669.92;104554;1268;202989;-61
2023/08/11 01:20:01;;;;;;;7.60;3.50;;;;;;;21.71;50.95;100672.48;104654;1269;59242;-63
2023/08/11 01:22:30;;;;;;;6.10;3.30;;;;;;;21.68;50.78;100669.80;104415;1271;59021;-65
2023/08/11 01:24:57;;;;;;;7.00;3.70;;;;;;;21.66;51.00;100671.52;105281;1267;72044;-62
2023/08/11 01:27:25;;;;;;;5.30;3.10;;;;;;;21.64;51.15;100672.98;104702;1263;61800;-62
2023/08/11 01:29:52;;;;;;;7.00;3.80;;;;;;;21.62;51.26;100672.70;104636;1264;63792;-63
2023/08/11 01:32:20;;;;;;;7.90;3.70;;;;;;;21.61;51.59;100672.13;104695;1267;59750;-68
2023/08/11 01:34:48;;;;;;;7.30;3.60;;;;;;;21.62;51.95;100669.29;104627;1266;59695;-65
2023/08/11 01:37:15;;;;;;;9.10;3.40;;;;;;;21.64;52.02;100663.30;104760;1264;64109;-62
2023/08/11 01:39:43;;;;;;;6.30;3.10;;;;;;;21.65;51.73;100654.49;104648;1263;64378;-65
2023/08/11 01:42:10;;;;;;;6.50;3.50;;;;;;;21.64;51.36;100650.57;104599;1265;63749;-67
2023/08/11 01:44:38;;;;;;;11.10;3.60;;;;;;;21.61;51.27;100649.63;104550;1266;59698;-67
2023/08/11 01:47:05;;;;;;;8.00;3.50;;;;;;;21.59;51.06;100650.76;104475;1270;59690;-66
2023/08/11 01:49:34;;;;;;;8.30;3.90;;;;;;;21.57;51.10;100648.52;104670;1264;64185;-65
2023/08/11 01:52:03;;;;;;;9.40;3.80;;;;;;;21.53;50.91;100646.45;105174;1254;61960;-63
2023/08/11 01:54:31;;;;;;;11.30;4.10;;;;;;;21.49;51.10;100639.90;105338;1257;63693;-65
2023/08/11 01:56:58;;;;;;;8.00;4.20;;;;;;;21.45;51.43;100637.52;105344;1257;60086;-65
2023/08/11 01:59:26;;;;;;;8.50;4.10;;;;;;;21.40;51.51;100638.25;105422;1258;59585;-66
2023/08/11 02:01:54;;;;;;;9.20;4.50;;;;;;;21.35;51.66;100641.52;104974;1259;64689;-69
2023/08/11 02:04:22;;;;;;;10.10;4.60;;;;;;;21.29;51.71;100641.33;105226;1256;60201;-67
2023/08/11 02:06:50;;;;;;;9.80;4.90;;;;;;;21.25;52.02;100635.63;105230;1261;62653;-66
2023/08/11 02:09:18;;;;;;;7.40;4.20;;;;;;;21.20;52.11;100632.30;105293;1257;59739;-69
2023/08/11 02:11:46;;;;;;;7.40;4.80;;;;;;;21.15;52.03;100628.74;105172;1260;59698;-68
2023/08/11 02:14:13;;;;;;;8.80;4.20;;;;;;;21.09;52.03;100629.00;104978;1256;62799;-70
2023/08/11 02:16:41;;;;;;;10.30;5.00;;;;;;;21.04;52.10;100630.91;105144;1262;60259;-64
2023/08/11 02:19:09;;;;;;;8.00;4.50;;;;;;;20.97;52.19;100632.02;104999;1257;62539;-66
2023/08/11 02:21:39;;;;;;;11.70;4.60;;;;;;;20.93;52.32;100632.50;105346;1257;59715;-61
2023/08/11 02:24:06;;;;;;;7.60;3.80;;;;;;;20.93;52.66;100629.48;105030;1256;59799;-67
2023/08/11 02:26:34;;;;;;;8.60;4.70;;;;;;;20.93;52.52;100628.15;105190;1257;62828;-65
2023/08/11 02:29:03;;;;;;;7.70;4.60;;;;;;;20.94;52.68;100624.85;105160;1261;61440;-65
2023/08/11 02:31:32;;;;;;;7.80;4.00;;;;;;;20.92;52.54;100625.24;105283;1260;62450;-67
2023/08/11 02:34:00;;;;;;;7.00;4.20;;;;;;;20.90;52.33;100621.93;104999;1257;59690;-68
2023/08/11 02:36:28;;;;;;;7.50;4.20;;;;;;;20.89;52.46;100620.34;105178;1261;59667;-68
2023/08/11 02:38:56;;;;;;;7.00;4.20;;;;;;;20.86;52.53;100622.77;104993;1260;74496;-66
2023/08/11 02:41:23;;;;;;;9.80;4.90;;;;;;;20.82;52.58;100622.17;105144;1258;61374;-67
2023/08/11 02:43:51;;;;;;;8.60;4.40;;;;;;;20.81;52.73;100624.70;105168;1257;63752;-62
2023/08/11 02:46:20;;;;;;;9.10;4.70;;;;;;;20.81;52.71;100621.91;105014;1256;59642;-65
2023/08/11 02:48:47;;;;;;;9.60;4.80;;;;;;;20.79;52.89;100625.30;105616;1262;59570;-65
2023/08/11 02:51:16;;;;;;;8.00;4.20;;;;;;;20.77;53.19;100626.19;105131;1260;64217;-65
2023/08/11 02:53:44;;;;;;;10.70;3.90;;;;;;;20.75;53.48;100625.34;106141;1257;61393;-65
2023/08/11 02:56:15;;;;;;;6.70;4.00;;;;;;;20.78;53.63;100628.24;105123;1259;63730;-56
2023/08/11 02:58:42;;;;;;;7.80;4.50;;;;;;;20.83;53.74;100626.05;105212;1262;60537;-61
2023/08/11 03:01:10;;;;;;;9.90;4.70;;;;;;;20.87;53.81;100624.70;105287;1256;59565;-60
2023/08/11 03:03:38;;;;;;;6.90;4.30;;;;;;;20.89;53.93;100618.52;105274;1257;64207;-59
2023/08/11 03:06:05;;;;;;;10.50;3.90;;;;;;;20.90;53.86;100615.50;105140;1257;61353;-60
2023/08/11 03:08:33;;;;;;;6.70;4.00;;;;;;;20.90;53.62;100613.94;105297;1256;63807;-59
2023/08/11 03:11:01;;;;;;;6.40;4.10;;;;;;;20.89;53.94;100611.17;105114;1255;59680;-57
2023/08/11 03:13:33;;;;;;;8.20;4.60;;;;;;;20.87;53.89;100613.56;106594;1256;59245;-57
2023/08/11 03:16:00;;;;;;;8.40;4.10;;;;;;;20.85;53.96;100612.92;105112;1260;64155;-55
2023/08/11 03:18:28;;;;;;;10.10;4.60;;;;;;;20.84;54.09;100618.42;104951;1262;61510;-55
2023/08/11 03:20:57;;;;;;;7.20;3.70;;;;;;;20.86;54.25;100616.19;105088;1261;63780;-59
2023/08/11 03:23:45;;;;;;;7.40;3.90;;;;;;;20.90;54.48;100614.81;105170;1256;59666;-64
2023/08/11 03:26:13;;;;;;;7.80;3.90;;;;;;;20.91;54.40;100612.89;105332;1254;59625;-58
2023/08/11 03:28:41;;;;;;;7.60;4.60;;;;;;;20.92;54.19;100612.60;105110;1261;64484;-62
2023/08/11 03:31:09;;;;;;;9.80;4.40;;;;;;;20.93;54.07;100616.20;105266;1256;61435;-61
2023/08/11 03:33:39;;;;;;;10.10;4.60;;;;;;;20.93;53.73;100611.30;105213;1257;63762;-61
2023/08/11 03:36:10;;;;;;;6.70;4.20;;;;;;;20.93;53.79;100611.09;105113;1256;59843;-62
2023/08/11 03:38:38;;;;;;;10.20;5.00;;;;;;;20.93;53.42;100606.80;105336;1257;60034;-62
2023/08/11 03:41:06;;;;;;;8.70;4.50;;;;;;;20.93;53.31;100608.91;105214;1259;63053;-62
2023/08/11 03:43:34;;;;;;;9.10;4.50;;;;;;;20.93;53.35;100610.19;105515;1259;68912;-61
2023/08/11 03:46:02;;;;;;;9.60;4.50;;;;;;;20.92;53.30;100613.64;105309;1256;65922;-62
2023/08/11 03:48:30;;;;;;;9.20;4.60;;;;;;;20.92;53.30;100615.41;105282;1257;60308;-62
2023/08/11 03:50:59;;;;;;;7.40;4.20;;;;;;;20.96;53.40;100616.40;105354;1259;59641;-63
2023/08/11 03:53:29;;;;;;;7.90;3.80;;;;;;;21.04;53.65;100620.30;105181;1261;66836;-64
2023/08/11 03:55:57;;;;;;;8.30;4.50;;;;;;;21.07;53.83;100621.20;105787;1255;61291;-62
2023/08/11 03:58:26;;;;;;;7.50;4.10;;;;;;;21.11;53.93;100623.10;105172;1257;63710;-64
2023/08/11 04:00:55;;;;;;;7.60;4.40;;;;;;;21.15;53.74;100619.20;105238;1257;59778;-63
2023/08/11 04:03:23;;;;;;;7.90;4.10;;;;;;;21.18;53.61;100611.45;105370;1257;59629;-64
2023/08/11 04:05:51;;;;;;;6.90;4.00;;;;;;;21.22;53.67;100614.63;105654;1256;62904;-59
2023/08/11 04:08:20;;;;;;;8.40;4.10;;;;;;;21.24;53.82;100618.60;105160;1261;61332;-59
2023/08/11 04:10:48;;;;;;;7.90;4.40;;;;;;;21.25;53.63;100619.12;105257;1256;64303;-57
2023/08/11 04:13:16;;;;;;;9.60;4.40;;;;;;;21.26;53.51;100621.22;105165;1257;59837;-63
2023/08/11 04:15:45;;;;;;;9.60;4.50;;;;;;;21.28;53.52;100623.61;105263;1255;59694;-60
2023/08/11 04:18:16;;;;;;;8.40;4.40;;;;;;;21.32;53.30;100621.92;106209;1256;62948;-59
2023/08/11 04:20:48;;;;;;;8.20;4.60;;;;;;;21.34;52.89;100625.02;105113;1261;60265;-59
2023/08/11 04:23:15;;;;;;;8.20;5.10;;;;;;;21.34;53.10;100620.75;105170;1259;62450;-64
2023/08/11 04:25:43;;;;;;;8.30;4.20;;;;;;;21.35;52.96;100619.23;105076;1256;59671;-58
2023/08/11 04:28:12;;;;;;;7.60;4.50;;;;;;;21.37;52.80;100619.95;106563;1256;59873;-58
2023/08/11 04:30:40;;;;;;;7.50;4.30;;;;;;;21.38;52.79;100624.13;105257;1256;64112;-65
2023/08/11 04:33:09;;;;;;;7.70;4.40;;;;;;;21.38;52.89;100635.11;105108;1257;61655;-59
2023/08/11 04:35:38;;;;;;;6.70;3.90;;;;;;;21.39;53.09;100640.03;105305;1260;62454;-60
2023/08/11 04:38:05;;;;;;;9.90;4.30;;;;;;;21.40;53.23;100647.54;105383;1255;59713;-63
2023/08/11 04:40:34;;;;;;;7.80;3.70;;;;;;;21.43;53.37;100657.34;105597;1261;59742;-64
2023/08/11 04:43:02;;;;;;;7.50;4.00;;;;;;;21.47;53.51;100666.27;105202;1256;64064;-60
2023/08/11 04:45:34;;;;;;;6.60;3.80;;;;;;;21.53;53.47;100669.52;105325;1256;61364;-63
2023/08/11 04:48:02;;;;;;;7.60;4.30;;;;;;;21.59;53.49;100670.66;105657;1262;62912;-64
2023/08/11 04:50:30;;;;;;;9.20;4.80;;;;;;;21.67;53.42;100666.95;105352;1261;60234;-63
2023/08/11 04:52:58;;;;;;;8.00;4.40;;;;;;;21.75;53.26;100666.67;104827;1259;59560;-65
2023/08/11 04:55:30;;;;;;;8.00;4.80;;;;;;;21.81;53.23;100666.62;104918;1256;65054;-66
2023/08/11 04:58:01;;;;;;;10.40;5.40;;;;;;;21.86;53.32;100660.48;105214;1256;61664;-61
2023/08/11 05:00:30;;;;;;;8.00;5.00;;;;;;;21.89;53.35;100656.03;104873;1256;64165;-60
2023/08/11 05:02:57;;;;;;;9.20;5.00;;;;;;;21.87;52.67;100654.11;104874;1254;59738;-59
2023/08/11 05:05:26;;;;;;;8.60;4.50;;;;;;;21.82;52.81;100650.02;105424;1256;60138;-58
2023/08/11 05:07:54;;;;;;;7.60;4.10;;;;;;;21.78;53.07;100653.24;105076;1255;63151;-62
2023/08/11 05:10:25;;;;;;;11.30;4.90;;;;;;;21.75;52.86;100653.61;105374;1260;60226;-61
2023/08/11 05:12:53;;;;;;;8.90;4.90;;;;;;;21.70;52.68;100658.80;105096;1257;73339;-58
2023/08/11 05:15:23;;;;;;;12.40;4.80;;;;;;;21.71;52.63;100659.27;105143;1256;60549;-67
2023/08/11 05:17:53;;;;;;;6.80;4.30;;;;;;;21.74;52.29;100657.42;105286;1255;60320;-66
2023/08/11 05:20:21;;;;;;;8.30;3.50;;;;;;;21.73;52.43;100657.50;105190;1256;65256;-69
2023/08/11 05:22:52;;;;;;;7.50;3.90;;;;;;;21.75;52.61;100662.89;105155;1255;60465;-65
2023/08/11 05:25:22;;;;;;;9.20;4.30;;;;;;;21.80;52.42;100663.96;108893;1255;66084;-68
2023/08/11 05:27:50;;;;;;;9.00;4.00;;;;;;;21.82;52.53;100663.37;107320;1255;60502;-62
2023/08/11 05:30:26;;;;;;;9.40;4.30;;;;;;;21.86;52.93;100660.83;105060;1256;60812;-60
2023/08/11 05:32:54;;;;;;;8.20;4.40;;;;;;;21.92;52.88;100658.86;105344;1259;63650;-65
2023/08/11 05:35:22;;;;;;;8.30;4.50;;;;;;;21.97;52.93;100662.73;105014;1257;61451;-67
2023/08/11 05:37:50;;;;;;;9.60;4.20;;;;;;;22.01;52.28;100661.77;104896;1257;65589;-63
2023/08/11 05:40:17;;;;;;;6.30;3.80;;;;;;;22.02;52.28;100657.60;105086;1260;60586;-59
2023/08/11 05:42:45;;;;;;;7.80;4.30;;;;;;;22.02;52.31;100655.29;105115;1256;60534;-67
2023/08/11 05:45:13;;;;;;;9.40;4.60;;;;;;;22.03;52.73;100657.81;106131;1257;64969;-67
2023/08/11 05:47:44;;;;;;;8.00;3.50;;;;;;;22.09;52.93;100654.36;104945;1257;61485;-63
2023/08/11 05:50:12;;;;;;;6.60;4.10;;;;;;;22.17;52.66;100655.21;106240;1256;62649;-62
2023/08/11 05:52:39;;;;;;;7.80;3.80;;;;;;;22.21;52.52;100653.61;104845;1256;61147;-63
2023/08/11 05:55:08;;;;;;;8.00;4.10;;;;;;;22.24;52.57;100651.62;104864;1256;60531;-68
2023/08/11 05:57:36;;;;;;;7.20;4.10;;;;;;;22.27;52.58;100647.02;105364;1260;68555;-63
2023/08/11 06:00:06;;;;;;;8.60;4.10;;;;;;;22.26;52.65;100647.17;105136;1256;61575;-59
2023/08/11 06:02:40;;;;;;;6.90;4.30;;;;;;;22.27;53.04;100644.30;105438;1255;63770;-62
2023/08/11 06:05:08;;;;;;;8.30;4.20;;;;;;;22.28;53.07;100640.09;105738;1261;60445;-61
2023/08/11 06:07:41;;;;;;;6.30;3.80;;;;;;;22.30;52.80;100639.98;105299;1256;60565;-58
2023/08/11 06:10:22;;;;;;;7.10;4.40;;;;;;;22.31;52.48;100644.85;105066;1256;64941;-58
2023/08/11 06:12:55;;;;;;;8.50;3.90;;;;;;;22.32;52.66;100643.41;105254;1261;60531;-59
2023/08/11 06:15:23;;;;;;;7.70;4.00;;;;;;;22.36;52.84;100647.53;105987;1256;65129;-62
2023/08/11 06:17:52;;;;;;;7.10;4.50;;;;;;;22.43;52.58;100650.02;105134;1256;60489;-71
2023/08/11 06:20:21;;;;;;;8.50;4.30;;;;;;;22.51;52.39;100655.41;105127;1258;60459;-65
2023/08/11 06:23:07;;;;;;;12.00;4.60;;;;;;;22.61;52.67;100654.73;105119;1256;65245;-63
2023/08/11 06:25:35;;;;;;;8.30;4.50;;;;;;;22.72;52.43;100656.00;105050;1256;61402;-70
2023/08/11 06:28:03;;;;;;;7.90;3.90;;;;;;;22.85;52.37;100651.52;105350;1256;70823;-68
2023/08/11 06:30:31;;;;;;;7.80;4.50;;;;;;;22.95;51.80;100647.73;104931;1261;60797;-67
2023/08/11 06:32:58;;;;;;;8.30;4.70;;;;;;;22.98;51.45;100642.95;104926;1256;60559;-64
2023/08/11 06:35:26;;;;;;;10.00;4.40;;;;;;;23.00;51.12;100638.27;104954;1256;65127;-66
2023/08/11 06:37:54;;;;;;;9.20;4.50;;;;;;;23.02;50.82;100637.16;104980;1259;61859;-66
2023/08/11 06:40:21;;;;;;;9.60;4.80;;;;;;;23.01;50.67;100636.11;104777;1258;63794;-63
2023/08/11 06:42:49;;;;;;;7.20;4.20;;;;;;;22.99;50.43;100633.34;104807;1262;60533;-70
2023/08/11 06:45:19;;;;;;;8.10;4.50;;;;;;;22.96;50.70;100635.06;105068;1261;61565;-67
2023/08/11 06:47:47;;;;;;;9.30;4.90;;;;;;;22.96;51.02;100633.79;105106;1257;64929;-67
2023/08/11 06:50:14;;;;;;;9.30;4.60;;;;;;;22.98;51.26;100636.52;105037;1261;61938;-64
2023/08/11 06:52:42;;;;;;;10.80;4.70;;;;;;;23.02;51.16;100632.61;104733;1258;63790;-64
2023/08/11 06:55:10;;;;;;;6.80;3.90;;;;;;;23.11;50.64;100631.19;105024;1258;60582;-68
2023/08/11 06:57:37;;;;;;;7.10;4.40;;;;;;;23.18;50.09;100634.17;104949;1261;59752;-68
2023/08/11 07:00:07;;;;;;;10.10;4.70;;;;;;;23.25;49.93;100636.17;104833;1256;64868;-68
2023/08/11 07:02:35;;;;;;;6.50;4.30;;;;;;;23.31;49.66;100634.42;105346;1256;61338;-71
2023/08/11 07:05:03;;;;;;;8.60;3.90;;;;;;;23.38;50.06;100634.00;104840;1257;63710;-66
2023/08/11 07:07:31;;;;;;;9.30;4.30;;;;;;;23.45;50.19;100631.25;105307;1259;60630;-66
2023/08/11 07:09:59;;;;;;;9.10;4.40;;;;;;;23.54;49.66;100629.33;105187;1257;63939;-66
2023/08/11 07:12:30;;;;;;;11.90;4.10;;;;;;;23.59;49.36;100624.70;104931;1256;65496;-65
2023/08/11 07:14:58;;;;;;;9.10;4.60;;;;;;;23.64;49.27;100622.66;104898;1261;60663;-66
2023/08/11 07:17:25;;;;;;;9.70;4.80;;;;;;;23.69;49.81;100621.73;104900;1259;63814;-67
2023/08/11 07:19:53;;;;;;;12.20;4.70;;;;;;;23.74;49.75;100620.20;105054;1261;61659;-70
2023/08/11 07:22:20;;;;;;;12.10;5.10;;;;;;;23.79;49.39;100614.59;105150;1256;60546;-64
2023/08/11 07:24:48;;;;;;;8.10;4.00;;;;;;;23.81;49.45;100615.10;104925;1256;64924;-68
2023/08/11 07:27:16;;;;;;;8.10;4.30;;;;;;;23.82;49.23;100614.87;105262;1256;61350;-70
2023/08/11 07:29:45;;;;;;;9.40;4.30;;;;;;;23.86;48.91;100613.64;105049;1257;64391;-62
2023/08/11 07:32:13;;;;;;;12.40;4.40;;;;;;;23.89;49.10;100611.95;105167;1256;60620;-70
2023/08/11 07:34:41;;;;;;;8.70;4.40;;;;;;;23.92;49.37;100612.62;105127;1261;60396;-53
2023/08/11 07:37:08;;;;;;;8.10;4.30;;;;;;;23.98;49.27;100614.82;104562;1256;66671;-53
2023/08/11 07:39:37;;;;;;;10.10;4.30;;;;;;;24.02;49.07;100624.07;104815;1257;61470;-52
2023/08/11 07:42:05;;;;;;;8.90;4.30;;;;;;;24.05;48.91;100619.04;104857;1259;63783;-55
2023/08/11 07:44:33;;;;;;;8.90;4.50;;;;;;;24.09;49.12;100619.86;105614;1259;60524;-53
2023/08/11 07:47:01;;;;;;;9.10;4.50;;;;;;;24.14;48.83;100622.60;104903;1257;60782;-52
2023/08/11 07:49:29;;;;;;;9.00;4.10;;;;;;;24.20;48.82;100624.09;106631;1258;64897;-54
2023/08/11 07:51:57;;;;;;;9.10;4.70;;;;;;;24.23;48.61;100634.05;104845;1261;60484;-52
2023/08/11 07:54:24;;;;;;;7.50;4.30;;;;;;;24.22;48.39;100635.77;105124;1256;63877;-53
2023/08/11 07:56:53;;;;;;;7.60;4.20;;;;;;;24.20;48.93;100641.95;104912;1258;60529;-54
2023/08/11 07:59:20;;;;;;;9.40;4.70;;;;;;;24.20;49.19;100643.40;105030;1256;60489;-54
2023/08/11 08:01:51;;;;;;;6.70;4.30;;;;;;;24.20;49.14;100645.52;105185;1256;64906;-54
2023/08/11 08:04:20;;;;;;;10.30;4.50;;;;;;;24.24;49.64;100644.48;105127;1257;61352;-56
2023/08/11 08:06:47;;;;;;;6.90;4.20;;;;;;;24.31;49.40;100643.08;105087;1255;63787;-57
2023/08/11 08:09:15;;;;;;;8.00;4.20;;;;;;;24.42;49.16;100635.73;105107;1256;60675;-56
2023/08/11 08:11:43;;;;;;;7.80;4.30;;;;;;;24.53;48.91;100638.11;105163;1260;60468;-56
2023/08/11 08:14:11;;;;;;;7.10;4.90;;;;;;;24.61;48.71;100640.10;105308;1256;63701;-55
2023/08/11 08:16:41;;;;;;;7.50;4.40;;;;;;;24.72;49.21;100633.88;105151;1257;61389;-57
2023/08/11 08:19:11;;;;;;;7.10;4.10;;;;;;;24.83;48.57;100629.42;105263;1257;63677;-58
2023/08/11 08:21:39;;;;;;;10.30;4.70;;;;;;;24.93;48.38;100628.48;105287;1257;60573;-57
2023/08/11 08:24:07;;;;;;;10.50;5.20;;;;;;;24.99;47.73;100629.63;105223;1258;60837;-57
2023/08/11 08:26:36;;;;;;;8.20;4.80;;;;;;;25.00;47.61;100633.92;105208;1256;64885;-57
2023/08/11 08:29:05;;;;;;;7.80;4.80;;;;;;;25.01;47.78;100635.37;105093;1256;61459;-57
2023/08/11 08:31:32;;;;;;;7.00;4.20;;;;;;;25.05;47.50;100638.50;105108;1257;64436;-58
2023/08/11 08:34:00;;;;;;;7.50;4.10;;;;;;;25.11;47.28;100634.77;105361;1257;61261;-55
2023/08/11 08:36:28;;;;;;;8.80;4.90;;;;;;;25.16;47.37;100631.85;105299;1260;60393;-55
2023/08/11 08:38:56;;;;;;;6.60;4.10;;;;;;;25.17;47.09;100631.34;105234;1261;65626;-58
2023/08/11 08:41:27;;;;;;;9.20;5.10;;;;;;;25.16;47.07;100633.79;105237;1256;61596;-56
2023/08/11 08:43:55;;;;;;;7.70;4.30;;;;;;;25.17;47.34;100631.95;105382;1259;63754;-58
2023/08/11 08:46:26;;;;;;;7.30;4.00;;;;;;;25.21;47.08;100635.70;105239;1256;60624;-57
2023/08/11 08:49:11;;;;;;;7.10;4.10;;;;;;;25.28;47.46;100632.67;105540;1257;60541;-56
2023/08/11 08:51:39;;;;;;;8.30;4.70;;;;;;;25.35;47.62;100633.41;105170;1262;66059;-58
2023/08/11 08:54:09;;;;;;;8.30;4.40;;;;;;;25.44;47.40;100629.92;105032;1262;68741;-57
2023/08/11 08:56:40;;;;;;;9.70;4.30;;;;;;;25.48;47.10;100628.73;105212;1256;63888;-58
2023/08/11 08:59:08;;;;;;;8.10;4.80;;;;;;;25.51;47.40;100628.31;105021;1259;60611;-56
2023/08/11 09:01:36;;;;;;;9.40;4.80;;;;;;;25.52;47.43;100631.24;105344;1256;60563;-57
2023/08/11 09:04:06;;;;;;;12.70;4.30;;;;;;;25.49;47.42;100632.67;105266;1261;63636;-57
2023/08/11 09:06:34;;;;;;;7.30;4.30;;;;;;;25.49;47.91;100631.92;105179;1260;60457;-56
2023/08/11 09:09:03;;;;;;;9.40;5.20;;;;;;;25.51;48.42;100628.77;105270;1259;63784;-56
2023/08/11 09:11:31;;;;;;;7.70;4.70;;;;;;;25.51;48.28;100626.52;107332;1261;60363;-59
2023/08/11 09:14:03;;;;;;;8.00;5.30;;;;;;;25.53;48.05;100620.59;105244;1261;60586;-55
2023/08/11 09:16:32;;;;;;;9.10;4.30;;;;;;;25.56;48.40;100621.45;105307;1256;64918;-63
2023/08/11 09:19:00;;;;;;;8.60;5.00;;;;;;;25.66;48.22;100618.32;106406;1257;60550;-56
2023/08/11 09:21:28;;;;;;;10.10;4.60;;;;;;;25.71;47.60;100615.67;105164;1256;63904;-56
2023/08/11 09:23:56;;;;;;;8.40;4.90;;;;;;;25.70;47.86;100613.98;104933;1256;60527;-57
2023/08/11 09:26:24;;;;;;;8.70;4.80;;;;;;;25.71;47.96;100612.23;105450;1259;60506;-58
2023/08/11 09:28:52;;;;;;;8.90;5.00;;;;;;;25.73;47.95;100614.23;105206;1256;64884;-59
2023/08/11 09:31:24;;;;;;;8.10;4.60;;;;;;;25.76;48.20;100616.67;105236;1256;61796;-55
2023/08/11 09:33:52;;;;;;;7.60;4.60;;;;;;;25.79;48.08;100620.80;105312;1256;63695;-50
2023/08/11 09:36:19;;;;;;;7.90;4.10;;;;;;;25.77;47.88;100623.34;105169;1262;61203;-51
2023/08/11 09:38:48;;;;;;;10.40;5.00;;;;;;;25.78;48.13;100626.23;105164;1256;60431;-51
2023/08/11 09:41:16;;;;;;;7.50;4.60;;;;;;;25.81;47.77;100617.84;105375;1258;64992;-52
2023/08/11 09:43:48;;;;;;;7.70;4.70;;;;;;;25.87;47.78;100613.20;105257;1260;60468;-51
2023/08/11 09:46:15;;;;;;;9.40;4.80;;;;;;;25.92;47.99;100609.06;105129;1256;62477;-46
2023/08/11 09:48:56;;;;;;;7.40;5.20;;;;;;;26.02;47.62;100605.61;105134;1259;60477;-58
2023/08/11 09:51:23;;;;;;;9.50;5.10;;;;;;;26.10;47.70;100601.64;105277;1256;60521;-62
2023/08/11 09:53:51;;;;;;;8.40;4.60;;;;;;;26.22;48.02;100600.91;105055;1255;64877;-61
2023/08/11 09:56:18;;;;;;;8.40;4.30;;;;;;;26.34;47.90;100591.80;104983;1264;60598;-62
2023/08/11 09:58:46;;;;;;;10.40;4.20;;;;;;;26.40;47.83;100590.00;105064;1263;63833;-61
2023/08/11 10:01:13;;;;;;;7.10;4.50;;;;;;;26.43;47.80;100591.27;104983;1256;61391;-59
2023/08/11 10:03:48;;;;;;;6.90;4.40;;;;;;;26.43;47.54;100587.66;104790;1256;60472;-59
2023/08/11 10:06:19;;;;;;;7.80;4.40;;;;;;;26.40;47.43;100588.59;105003;1256;64925;-59
2023/08/11 10:08:47;;;;;;;7.60;4.70;;;;;;;26.36;47.72;100586.02;106209;1260;60814;-61
2023/08/11 10:11:16;;;;;;;8.10;4.80;;;;;;;26.34;48.00;100581.88;105364;1256;64195;-59
2023/08/11 10:13:44;;;;;;;7.60;4.70;;;;;;;26.36;48.01;100580.46;105323;1258;60569;-58
2023/08/11 10:16:12;;;;;;;6.90;4.70;;;;;;;26.36;48.09;100581.33;104889;1257;60502;-58
2023/08/11 10:18:41;;;;;;;11.10;5.10;;;;;;;26.38;48.41;100579.14;108809;1256;64956;-58
2023/08/11 10:21:09;;;;;;;8.20;5.20;;;;;;;26.44;48.02;100577.05;108663;1256;61371;-59
2023/08/11 10:23:37;;;;;;;8.90;5.10;;;;;;;26.49;48.00;100575.17;108690;1259;62508;-57
2023/08/11 10:26:04;;;;;;;7.50;4.90;;;;;;;26.51;47.68;100574.66;108697;1256;60433;-57
2023/08/11 10:28:32;;;;;;;6.70;4.40;;;;;;;26.55;47.79;100571.71;108718;1257;58590;-55
2023/08/11 10:31:01;;;;;;;11.30;4.80;;;;;;;26.66;48.14;100567.38;106861;1261;65665;-56
2023/08/11 10:33:29;;;;;;;7.10;4.60;;;;;;;26.78;47.47;100566.80;104633;1261;60508;-58
2023/08/11 10:35:59;;;;;;;9.60;4.60;;;;;;;26.81;47.50;100568.19;104895;1258;63695;-57
2023/08/11 10:38:27;;;;;;;7.20;4.00;;;;;;;26.83;47.94;100569.61;104677;1260;60585;-64
2023/08/11 10:41:14;;;;;;;7.90;4.30;;;;;;;26.94;47.20;100577.58;105600;1256;59324;-64
2023/08/11 10:43:46;;;;;;;8.50;4.20;;;;;;;26.98;46.76;100573.82;104634;1263;64881;-64
2023/08/11 10:46:21;;;;;;;9.90;4.10;;;;;;;26.99;47.62;100565.71;107785;1256;60846;-63
2023/08/11 10:49:00;;;;;;;8.30;4.20;;;;;;;27.09;47.62;100569.02;104714;1261;62521;-66
2023/08/11 10:51:35;;;;;;;7.10;4.10;;;;;;;27.19;47.37;100574.70;105115;1256;61239;-66
2023/08/11 10:54:06;;;;;;;6.80;4.70;;;;;;;27.25;46.93;100572.80;104918;1256;60370;-65
2023/08/11 10:56:41;;;;;;;8.00;4.10;;;;;;;27.31;47.10;100573.20;104730;1257;64867;-61
2023/08/11 10:59:14;;;;;;;8.50;4.10;;;;;;;27.37;46.56;100569.55;104956;1256;61739;-60
2023/08/11 11:01:45;;;;;;;6.60;4.00;;;;;;;27.46;46.66;100565.02;104700;1259;62493;-63
2023/08/11 11:04:13;;;;;;;7.70;3.90;;;;;;;27.54;46.11;100566.90;104997;1256;61808;-61
2023/08/11 11:06:41;;;;;;;5.80;3.70;;;;;;;27.55;45.28;100563.09;104907;1257;60583;-60
2023/08/11 11:09:09;;;;;;;6.60;3.40;;;;;;;27.52;45.16;100557.50;105425;1256;65444;-62
2023/08/11 11:11:37;;;;;;;6.10;3.60;;;;;;;27.51;45.46;100557.85;104608;1256;63163;-60
2023/08/11 11:14:06;;;;;;;6.00;3.80;;;;;;;27.52;45.47;100557.02;104566;1257;63341;-60
2023/08/11 11:16:34;;;;;;;5.70;3.60;;;;;;;27.54;45.39;100555.51;104938;1256;60560;-60
2023/08/11 11:19:02;;;;;;;8.70;4.00;;;;;;;27.54;45.67;100555.46;104982;1259;60483;-61
2023/08/11 11:21:30;;;;;;;7.00;3.60;;;;;;;27.56;45.82;100556.10;105361;1256;64945;-65
2023/08/11 11:23:58;;;;;;;5.90;3.20;;;;;;;27.61;45.92;100552.86;104670;1262;61325;-60
2023/08/11 11:26:27;;;;;;;5.40;3.40;;;;;;;27.57;45.10;100550.14;104904;1257;63803;-61
2023/08/11 11:28:57;;;;;;;5.70;3.40;;;;;;;27.51;44.87;100546.45;105097;1259;60558;-65